»·PEaware :: FFT1585 KTPA-KLAS

FFT1585 :: KTPA-KLAS

FLIGHT INFORMATION

Flight Status: Arrived
Operator:
Frontier Airlines
More flights by this operator :: More flights under this callsign
Pilot: Jac C. (16067)
Aircraft: AIRBUS A320
(A320)
More flights by this aircraft type
Origin: KTPA Tampa Intl
United States
Destination: KLAS McCarran Intl
United States
More flights between these airports :: More routes between these airports
Route: +ENDED7 SZW MEI ELD ADM KA30Y GUP J72 PGS TYSSN5
File this flight plan on PilotEdge
Remarks:
Altitude:
(Current/Filed)
34,000ft
Speed:
(Current/Filed)
458kts
Departed: 11-Feb-18 03:10 PM
Arrived: 11-Feb-18 04:42 PM
Distance/Time
Traveled:
1719nm/1:31
Distance/Time
To Go:
Arrived

Flight Plot

Page will automatically refresh every two minutes.

Flight plan parsing failed; only flown route is shown


Map Options




Map Legend


Flown Route
Filed Route
Departure Airport
Arrival Airport
Navaid (VOR, NDB)
Fix

Horizontal Profiles

Position Reports

Time Latitude Longitude Heading Altitude Ground
Speed
11-Feb-18 15:16 35.145790 -103.596262 276 34199ft 399kts
11-Feb-18 15:17 35.157062 -103.730456 275 34159ft 400kts
11-Feb-18 15:18 35.168255 -103.865439 275 34197ft 401kts
11-Feb-18 15:19 35.179304 -104.000479 275 34190ft 400kts
11-Feb-18 15:20 35.190185 -104.135323 275 34175ft 399kts
11-Feb-18 15:21 35.200913 -104.270195 275 34168ft 399kts
11-Feb-18 15:22 35.211497 -104.405245 275 34169ft 399kts
11-Feb-18 15:23 35.221892 -104.539817 275 34142ft 399kts
11-Feb-18 15:24 35.232151 -104.674293 275 34129ft 400kts
11-Feb-18 15:25 35.242334 -104.809867 274 34169ft 401kts
11-Feb-18 15:26 35.252317 -104.945061 274 34164ft 400kts
11-Feb-18 15:27 35.262176 -105.080622 274 34150ft 400kts
11-Feb-18 15:28 35.271844 -105.215630 274 34141ft 399kts
11-Feb-18 15:29 35.281393 -105.351107 274 34141ft 399kts
11-Feb-18 15:30 35.290757 -105.486117 274 34144ft 399kts
11-Feb-18 15:31 35.299986 -105.621378 273 34140ft 400kts
11-Feb-18 15:32 35.309044 -105.756338 274 34190ft 401kts
11-Feb-18 15:33 35.318027 -105.892515 274 34165ft 401kts
11-Feb-18 15:34 35.326814 -106.028086 274 34152ft 400kts
11-Feb-18 15:35 35.335468 -106.163938 274 34143ft 400kts
11-Feb-18 15:36 35.343931 -106.299157 274 34139ft 400kts
11-Feb-18 15:37 35.352266 -106.434772 274 34140ft 399kts
11-Feb-18 15:38 35.360438 -106.570245 274 34142ft 399kts
11-Feb-18 15:39 35.368478 -106.706021 273 34147ft 401kts
11-Feb-18 15:40 35.376371 -106.841945 273 34171ft 402kts
11-Feb-18 15:41 35.384151 -106.978615 273 34162ft 401kts
11-Feb-18 15:42 35.391721 -107.114280 273 34148ft 400kts
11-Feb-18 15:43 35.399169 -107.250508 273 34142ft 400kts
11-Feb-18 15:44 35.406437 -107.386245 273 34141ft 400kts
11-Feb-18 15:45 35.413492 -107.520842 273 34112ft 400kts
11-Feb-18 15:46 35.420437 -107.656230 273 34116ft 400kts
11-Feb-18 15:47 35.427259 -107.792178 273 34128ft 401kts
11-Feb-18 15:48 35.433959 -107.928822 273 34132ft 401kts
11-Feb-18 15:49 35.440482 -108.064909 273 34125ft 401kts
11-Feb-18 15:50 35.446835 -108.200978 273 34119ft 400kts
11-Feb-18 15:51 35.453062 -108.337497 273 34118ft 400kts
11-Feb-18 15:52 35.459117 -108.473533 273 34115ft 400kts
11-Feb-18 15:53 35.465013 -108.609406 273 34117ft 400kts
11-Feb-18 15:54 35.470678 -108.743435 272 34124ft 400kts
11-Feb-18 15:55 35.476281 -108.879538 273 34132ft 401kts
11-Feb-18 15:56 35.483203 -109.015318 273 34127ft 400kts
11-Feb-18 15:57 35.489976 -109.151687 273 34118ft 400kts
11-Feb-18 15:58 35.496556 -109.287646 273 34115ft 400kts
11-Feb-18 15:59 35.502997 -109.423959 273 34114ft 400kts
11-Feb-18 16:00 35.509269 -109.559988 273 34116ft 400kts
11-Feb-18 16:01 35.515352 -109.695179 273 34119ft 400kts
11-Feb-18 16:02 35.521327 -109.831383 273 34131ft 401kts
11-Feb-18 16:03 35.526925 -109.962345 273 34131ft 401kts
11-Feb-18 16:04 35.532602 -110.098716 273 34122ft 400kts
11-Feb-18 16:05 35.538103 -110.234525 273 34076ft 401kts
11-Feb-18 16:06 35.543478 -110.371111 273 34057ft 400kts
11-Feb-18 16:07 35.548670 -110.506866 273 34059ft 400kts
11-Feb-18 16:08 35.553729 -110.643184 273 34063ft 400kts
11-Feb-18 16:08 35.557799 -110.755972 272 34083ft 399kts
11-Feb-18 16:10 35.563348 -110.914445 272 34045ft 399kts
11-Feb-18 16:11 35.567929 -111.050382 272 34032ft 398kts
11-Feb-18 16:11 35.571611 -111.163012 272 34029ft 398kts
11-Feb-18 16:13 35.576595 -111.320799 272 34030ft 397kts
11-Feb-18 16:13 35.580024 -111.433356 273 34034ft 397kts
11-Feb-18 16:15 35.583968 -111.591662 272 34037ft 397kts
11-Feb-18 16:15 35.586178 -111.703504 272 34038ft 398kts
11-Feb-18 16:17 35.589161 -111.861384 272 34014ft 398kts
11-Feb-18 16:17 35.592435 -111.974415 273 33521ft 397kts
11-Feb-18 16:18 35.596732 -112.110853 273 32547ft 402kts
11-Feb-18 16:19 35.600850 -112.248556 273 30473ft 407kts
11-Feb-18 16:20 35.604920 -112.389889 274 27992ft 416kts
11-Feb-18 16:22 35.607966 -112.533542 274 25533ft 427kts
11-Feb-18 16:23 35.610891 -112.675795 273 24449ft 416kts
11-Feb-18 16:24 35.613665 -112.817447 273 24005ft 416kts
11-Feb-18 16:25 35.615863 -112.959174 274 23961ft 404kts
11-Feb-18 16:26 35.618294 -113.097040 274 23958ft 405kts
11-Feb-18 16:27 35.620476 -113.235445 274 23958ft 406kts
11-Feb-18 16:28 35.622478 -113.374232 274 23958ft 406kts
11-Feb-18 16:29 35.624311 -113.512460 274 23958ft 406kts
11-Feb-18 16:30 35.639735 -113.648937 282 23957ft 402kts
11-Feb-18 16:31 35.658979 -113.784012 282 23957ft 403kts
11-Feb-18 16:32 35.678233 -113.920301 282 21875ft 401kts
11-Feb-18 16:33 35.695373 -114.043524 282 19319ft 338kts
11-Feb-18 16:34 35.710245 -114.150381 282 16443ft 303kts
11-Feb-18 16:35 35.723950 -114.249152 282 13488ft 287kts
11-Feb-18 16:36 35.736790 -114.342233 281 12029ft 275kts
11-Feb-18 16:37 35.786723 -114.403694 336 12019ft 276kts
11-Feb-18 16:38 35.858589 -114.437738 335 12022ft 277kts
11-Feb-18 16:39 35.930422 -114.471555 336 12022ft 277kts
11-Feb-18 16:40 35.999762 -114.510435 309 11927ft 269kts
11-Feb-18 16:41 36.028029 -114.589602 292 11132ft 232kts
11-Feb-18 16:42 36.052770 -114.664988 291 9585ft 249kts
11-Feb-18 16:43 36.073432 -114.748201 269 8108ft 261kts
11-Feb-18 16:44 36.073477 -114.832723 271 7761ft 241kts
11-Feb-18 16:45 36.073245 -114.914923 269 6472ft 250kts
11-Feb-18 16:46 36.072834 -115.001192 272 3966ft 247kts
11-Feb-18 16:47 36.073580 -115.075174 269 2754ft 172kts
11-Feb-18 16:48 36.073704 -115.129771 268 2058ft 147kts
11-Feb-18 16:49 36.074995 -115.151041 314 2123ft 12kts
11-Feb-18 16:50 36.075131 -115.151187 321 2123ft 0kts
11-Feb-18 16:51 36.077899 -115.149216 94 2110ft 25kts
11-Feb-18 16:52 36.078234 -115.141554 90 2086ft 22kts
11-Feb-18 16:53 36.080281 -115.137883 60 2068ft 18kts
11-Feb-18 16:54 36.080866 -115.136795 45 2065ft 0kts
11-Feb-18 16:55 36.080866 -115.136795 45 2065ft 0kts
11-Feb-18 16:56 36.080866 -115.136795 45 2065ft 0kts
11-Feb-18 16:57 36.080866 -115.136795 45 2065ft 0kts
11-Feb-18 16:58 36.080866 -115.136795 45 2065ft 0kts
11-Feb-18 16:59 36.080866 -115.136795 45 2065ft 0kts
11-Feb-18 17:00 36.080866 -115.136795 45 2065ft 0kts
11-Feb-18 17:01 36.080866 -115.136795 45 2065ft 0kts
11-Feb-18 17:02 36.082141 -115.135839 308 2061ft 0kts

Navigation Log

Ident Type
Flight plan parsing failed, navigation log unavailable